< < Back
Terminal Aerodrome Forecast


Current Version              Previous Versions:   1  2  3  4  5  6  7  8  9  

Terminal Aerodrome Forecast

087
FTUS42 KTAE 050045 AAA
TAFVLD
TAF AMD
KVLD 050045Z 0501/0524 06006KT P6SM VCTS SCT040CB BKN100
      TEMPO 0501/0503 5SM TSRA BKN040CB
     FM050300 00000KT P6SM SCT120
     FM051400 07004KT P6SM SCT040
     FM051800 08007KT P6SM VCTS SCT040CB=



Latest METAR

889
SAUS70 KWBC 050100 RRA
MTRVLD
METAR KVLD 050053Z 09011G19KT 10SM FEW024 BKN060 OVC075 28/24 A2998 RMK
AO2 LTG DSNT ALQDS SLP156 T02830244


USA.gov is the U.S. government's official web portal to all federal, state and local government web resources and services.